createdAt,value
2018-11-10T00:00:36.479Z,63.30
2018-11-10T00:03:12.254Z,63.40
2018-11-10T00:05:46.589Z,63.30
2018-11-10T00:08:24.785Z,63.30
2018-11-10T00:10:59.032Z,63.30
2018-11-10T00:13:37.294Z,63.60
2018-11-10T00:16:09.547Z,63.60
2018-11-10T00:18:44.148Z,63.60
2018-11-10T00:21:19.163Z,63.60
2018-11-10T00:24:00.026Z,63.50
2018-11-10T00:26:41.153Z,63.50
2018-11-10T00:29:17.309Z,63.50
2018-11-10T00:31:51.815Z,63.50
2018-11-10T00:34:27.002Z,63.50
2018-11-10T00:37:01.288Z,63.50
2018-11-10T00:39:35.622Z,63.50
2018-11-10T00:42:10.183Z,63.40
2018-11-10T00:44:44.745Z,63.40
2018-11-10T00:47:23.171Z,63.50
2018-11-10T00:49:57.820Z,63.90
2018-11-10T00:52:32.182Z,63.60
2018-11-10T00:55:10.682Z,63.50
2018-11-10T00:57:48.822Z,63.60
2018-11-10T01:00:27.480Z,63.80
2018-11-10T01:03:02.073Z,63.60
2018-11-10T01:05:38.146Z,63.60
2018-11-10T01:08:10.170Z,63.50
2018-11-10T01:10:44.828Z,63.50
2018-11-10T01:13:19.097Z,63.50
2018-11-10T01:16:03.800Z,63.70
2018-11-10T01:18:37.969Z,63.80
2018-11-10T01:21:13.893Z,63.70
2018-11-10T01:23:48.245Z,63.70
2018-11-10T01:26:22.818Z,63.80
2018-11-10T01:28:57.262Z,63.80
2018-11-10T01:31:31.553Z,63.80
2018-11-10T01:34:06.859Z,63.60
2018-11-10T01:36:40.933Z,63.80
2018-11-10T01:39:15.685Z,63.70
2018-11-10T01:41:51.909Z,63.60
2018-11-10T01:44:26.677Z,63.80
2018-11-10T01:47:01.125Z,63.60
2018-11-10T01:49:37.671Z,63.90
2018-11-10T01:52:12.909Z,63.90
2018-11-10T01:54:49.762Z,63.90
2018-11-10T01:57:30.350Z,63.80
2018-11-10T02:00:07.211Z,63.70
2018-11-10T02:02:43.366Z,63.80
2018-11-10T02:05:17.966Z,63.90
2018-11-10T02:07:52.262Z,63.80
2018-11-10T02:10:30.647Z,63.80
2018-11-10T02:13:05.254Z,63.80
2018-11-10T02:15:41.481Z,63.70
2018-11-10T02:18:16.121Z,63.60
2018-11-10T02:20:49.950Z,63.80
2018-11-10T02:23:24.236Z,64.00
2018-11-10T02:25:55.893Z,63.90
2018-11-10T02:28:33.720Z,63.90
2018-11-10T02:31:08.103Z,63.80
2018-11-10T02:33:42.291Z,63.90
2018-11-10T02:36:16.503Z,63.80
2018-11-10T02:38:51.551Z,63.80
2018-11-10T02:41:32.136Z,63.80
2018-11-10T02:44:06.288Z,63.80
2018-11-10T02:46:40.671Z,63.70
2018-11-10T02:49:15.018Z,63.70
2018-11-10T02:51:49.588Z,63.60
2018-11-10T02:54:23.991Z,63.70
2018-11-10T02:56:58.491Z,63.60
2018-11-10T02:59:34.955Z,63.60
2018-11-10T03:02:10.495Z,63.70
2018-11-10T03:04:44.937Z,63.80
2018-11-10T03:07:19.233Z,63.50
2018-11-10T03:09:53.691Z,63.60
2018-11-10T03:12:27.957Z,63.60
2018-11-10T03:15:02.365Z,63.60
2018-11-10T03:17:36.993Z,63.60
2018-11-10T03:20:13.495Z,63.70
2018-11-10T03:22:48.552Z,63.60
2018-11-10T03:25:23.140Z,63.60
2018-11-10T03:27:57.434Z,63.50
2018-11-10T03:30:31.620Z,64.30
2018-11-10T03:33:06.403Z,63.50
2018-11-10T03:35:41.724Z,63.50
2018-11-10T03:38:16.212Z,63.40
2018-11-10T03:40:51.598Z,63.50
2018-11-10T03:43:25.758Z,63.50
2018-11-10T03:46:04.112Z,63.40
2018-11-10T03:48:38.503Z,63.50
2018-11-10T03:51:19.266Z,63.50
2018-11-10T03:53:57.157Z,63.40
2018-11-10T03:56:35.582Z,63.50
2018-11-10T03:59:09.799Z,63.50
2018-11-10T04:01:44.119Z,63.50
2018-11-10T04:04:18.594Z,63.60
2018-11-10T04:06:55.011Z,64.30
2018-11-10T04:09:26.902Z,64.60
2018-11-10T04:11:58.405Z,64.40
2018-11-10T04:14:38.579Z,64.30
2018-11-10T04:17:12.460Z,64.00
2018-11-10T04:19:46.781Z,64.00
2018-11-10T04:22:27.455Z,64.00
2018-11-10T04:25:02.853Z,64.00
2018-11-10T04:27:35.243Z,64.00
2018-11-10T04:30:09.970Z,64.00
2018-11-10T04:32:44.039Z,64.00
2018-11-10T04:35:19.607Z,64.20
2018-11-10T04:37:54.116Z,64.30
2018-11-10T04:40:28.463Z,64.20
2018-11-10T04:43:02.840Z,64.30
2018-11-10T04:45:43.327Z,64.40
2018-11-10T04:48:17.325Z,64.40
2018-11-10T04:50:53.449Z,64.20
2018-11-10T04:53:25.551Z,64.30
2018-11-10T04:56:01.283Z,64.30
2018-11-10T04:58:39.636Z,64.40
2018-11-10T05:01:14.210Z,64.50
2018-11-10T05:03:48.458Z,64.60
2018-11-10T05:06:24.818Z,64.90
2018-11-10T05:08:59.694Z,64.80
2018-11-10T05:11:36.210Z,64.60
2018-11-10T05:14:14.245Z,64.80
2018-11-10T05:16:54.743Z,64.60
2018-11-10T05:19:28.886Z,64.70
2018-11-10T05:22:07.081Z,64.90
2018-11-10T05:24:40.976Z,64.80
2018-11-10T05:27:17.276Z,64.90
2018-11-10T05:29:51.752Z,64.90
2018-11-10T05:32:32.116Z,64.90
2018-11-10T05:35:07.358Z,64.90
2018-11-10T05:37:41.424Z,65.00
2018-11-10T05:40:15.797Z,65.10
2018-11-10T05:42:50.336Z,65.00
2018-11-10T05:45:26.961Z,65.10
2018-11-10T05:48:00.914Z,65.00
2018-11-10T05:50:35.431Z,65.00
2018-11-10T05:53:07.750Z,65.10
2018-11-10T05:55:45.799Z,65.20
2018-11-10T05:58:20.230Z,65.30
2018-11-10T06:01:00.932Z,65.60
2018-11-10T06:03:37.685Z,65.90
2018-11-10T06:06:18.351Z,65.80
2018-11-10T06:08:56.417Z,66.00
2018-11-10T06:11:30.529Z,66.10
2018-11-10T06:14:08.612Z,66.90
2018-11-10T06:16:40.653Z,67.50
2018-11-10T06:19:15.263Z,68.10
2018-11-10T06:21:55.770Z,68.00
2018-11-10T06:24:30.380Z,67.80
2018-11-10T06:27:04.869Z,68.00
2018-11-10T06:29:44.892Z,68.00
2018-11-10T06:32:19.744Z,67.80
2018-11-10T06:34:53.856Z,67.60
2018-11-10T06:37:28.289Z,67.40
2018-11-10T06:40:04.261Z,67.30
2018-11-10T06:42:38.214Z,67.30
2018-11-10T06:45:16.929Z,67.30
2018-11-10T06:47:54.939Z,67.40
2018-11-10T06:50:28.861Z,67.60
2018-11-10T06:53:06.115Z,67.80
2018-11-10T06:55:40.263Z,68.00
2018-11-10T06:58:18.707Z,68.00
2018-11-10T07:00:54.703Z,68.10
2018-11-10T07:03:39.952Z,68.00
2018-11-10T07:06:12.225Z,68.10
2018-11-10T07:08:47.875Z,68.30
2018-11-10T07:11:26.120Z,68.30
2018-11-10T07:14:00.361Z,68.70
2018-11-10T07:16:36.674Z,69.10
2018-11-10T07:19:10.745Z,69.40
2018-11-10T07:21:47.077Z,69.20
2018-11-10T07:24:21.642Z,69.40
2018-11-10T07:26:57.111Z,69.50
2018-11-10T07:29:31.339Z,69.70
2018-11-10T07:32:07.748Z,69.80
2018-11-10T07:34:44.231Z,70.00
2018-11-10T07:37:18.605Z,70.10
2018-11-10T07:39:54.745Z,69.90
2018-11-10T07:45:22.546Z,69.50
2018-11-10T07:47:59.026Z,69.40
2018-11-10T07:50:33.526Z,69.40
2018-11-10T07:53:08.041Z,69.50
2018-11-10T07:55:42.444Z,69.60
2018-11-10T07:58:23.136Z,69.60
2018-11-10T08:00:51.587Z,69.50
2018-11-10T08:03:23.416Z,69.50
2018-11-10T08:06:02.096Z,69.50
2018-11-10T08:08:38.394Z,69.70
2018-11-10T08:11:12.724Z,69.80
2018-11-10T08:13:47.037Z,70.00
2018-11-10T08:16:21.418Z,70.00
2018-11-10T08:18:57.752Z,70.10
2018-11-10T08:24:19.000Z,70.40
2018-11-10T08:26:47.552Z,70.90
2018-11-10T08:29:21.691Z,71.10
2018-11-10T08:31:56.465Z,71.20
2018-11-10T08:34:29.113Z,71.20
2018-11-10T08:37:09.516Z,71.30
2018-11-10T08:39:38.129Z,71.50
2018-11-10T08:42:06.732Z,71.50
2018-11-10T08:44:42.817Z,71.30
2018-11-10T08:47:17.227Z,71.50
2018-11-10T08:49:51.385Z,71.60
2018-11-10T08:52:25.897Z,71.80
2018-11-10T08:55:00.283Z,71.60
2018-11-10T08:57:41.051Z,71.60
2018-11-10T09:00:25.133Z,71.80
2018-11-10T09:03:12.003Z,72.10
2018-11-10T09:05:46.417Z,72.10
2018-11-10T09:08:14.915Z,72.10
2018-11-10T09:10:47.273Z,71.90
2018-11-10T09:13:22.064Z,72.10
2018-11-10T09:15:57.594Z,72.20
2018-11-10T09:35:15.884Z,72.00
2018-11-10T09:37:56.378Z,72.50
2018-11-10T09:40:32.128Z,72.50
2018-11-10T09:43:08.312Z,72.60
2018-11-10T09:45:42.421Z,72.60
2018-11-10T09:48:16.824Z,72.80
2018-11-10T09:50:52.412Z,72.80
2018-11-10T09:53:27.265Z,72.80
2018-11-10T09:55:56.002Z,72.70
2018-11-10T09:58:24.664Z,72.50
2018-11-10T10:01:01.275Z,72.50
2018-11-10T10:03:39.423Z,71.80
2018-11-10T10:06:19.818Z,71.90
2018-11-10T10:08:58.485Z,72.20
2018-11-10T10:11:40.364Z,72.50
2018-11-10T10:14:14.990Z,72.60
2018-11-10T10:16:43.563Z,72.40
2018-11-10T10:19:30.437Z,72.30
2018-11-10T10:21:59.049Z,72.00
2018-11-10T10:24:31.055Z,71.80
2018-11-10T10:27:07.926Z,71.60
2018-11-10T10:29:36.403Z,71.70
2018-11-10T10:32:14.313Z,71.70
2018-11-10T10:34:54.764Z,71.90
2018-11-10T10:37:29.307Z,71.70
2018-11-10T10:40:08.434Z,71.60
2018-11-10T10:42:48.834Z,71.60
2018-11-10T10:48:23.656Z,71.60
2018-11-10T10:50:55.666Z,71.50
2018-11-10T10:53:40.348Z,71.40
2018-11-10T10:56:08.940Z,71.60
2018-11-10T10:58:46.749Z,71.60
2018-11-10T11:01:20.645Z,71.60
2018-11-10T11:03:55.219Z,71.70
2018-11-10T11:06:24.307Z,71.90
2018-11-10T11:08:52.882Z,71.90
2018-11-10T11:11:28.954Z,71.90
2018-11-10T11:17:06.602Z,71.60
2018-11-10T11:19:38.312Z,71.40
2018-11-10T11:22:13.796Z,71.20
2018-11-10T11:24:47.826Z,71.10
2018-11-10T11:27:25.930Z,70.70
2018-11-10T11:30:04.063Z,70.60
2018-11-10T11:32:39.040Z,70.60
2018-11-10T11:35:19.798Z,70.50
2018-11-10T11:37:56.386Z,70.70
2018-11-10T11:40:24.918Z,70.90
2018-11-10T11:42:59.714Z,70.90
2018-11-10T11:45:34.268Z,70.90
2018-11-10T11:48:02.792Z,70.80
2018-11-10T11:50:31.285Z,70.80
2018-11-10T11:55:57.525Z,71.10
2018-11-10T11:58:26.041Z,70.80
2018-11-10T12:00:54.480Z,70.70
2018-11-10T12:03:23.025Z,70.80
2018-11-10T12:05:51.459Z,70.60
2018-11-10T12:08:25.931Z,70.20
2018-11-10T12:11:00.242Z,69.80
2018-11-10T12:13:32.487Z,69.70
2018-11-10T12:16:10.685Z,69.80
2018-11-10T12:18:39.169Z,69.80
2018-11-10T12:21:13.826Z,69.80
2018-11-10T12:23:47.819Z,69.80
2018-11-10T12:26:22.716Z,69.80
2018-11-10T12:28:57.495Z,69.80
2018-11-10T12:31:31.432Z,69.70
2018-11-10T12:34:07.639Z,69.90
2018-11-10T12:36:42.924Z,70.20
2018-11-10T12:39:19.072Z,70.20
2018-11-10T12:41:53.309Z,69.80
2018-11-10T12:44:27.428Z,70.50
2018-11-10T12:47:05.534Z,69.20
2018-11-10T12:49:41.384Z,69.20
2018-11-10T12:52:22.799Z,69.40
2018-11-10T12:54:57.729Z,69.70
2018-11-10T12:57:31.936Z,69.50
2018-11-10T13:00:08.378Z,69.50
2018-11-10T13:02:43.575Z,69.40
2018-11-10T13:05:18.360Z,69.60
2018-11-10T13:07:52.647Z,69.40
2018-11-10T13:10:26.869Z,69.40
2018-11-10T13:13:01.328Z,69.40
2018-11-10T13:15:41.649Z,69.40
2018-11-10T13:18:15.850Z,69.30
2018-11-10T13:20:50.116Z,69.30
2018-11-10T13:23:24.110Z,69.30
2018-11-10T13:25:58.348Z,69.70
2018-11-10T13:28:32.803Z,69.60
2018-11-10T13:31:08.107Z,69.70
2018-11-10T13:33:42.236Z,69.80
2018-11-10T13:36:17.508Z,69.70
2018-11-10T13:38:55.604Z,69.60
2018-11-10T13:41:27.847Z,69.40
2018-11-10T13:44:01.794Z,69.50
2018-11-10T13:46:35.960Z,69.70
2018-11-10T13:49:12.147Z,69.60
2018-11-10T13:51:47.662Z,69.70
2018-11-10T13:54:19.304Z,69.80
2018-11-10T13:56:54.127Z,69.80
2018-11-10T13:59:28.484Z,69.80
2018-11-10T14:02:04.887Z,69.90
2018-11-10T14:04:39.791Z,70.00
2018-11-10T14:07:14.045Z,70.10
2018-11-10T14:09:48.377Z,70.10
2018-11-10T14:12:22.479Z,70.20
2018-11-10T14:14:57.678Z,70.20
2018-11-10T14:17:31.958Z,70.20
2018-11-10T14:20:07.374Z,70.10
2018-11-10T14:22:43.468Z,70.20
2018-11-10T14:25:17.835Z,70.40
2018-11-10T14:27:51.827Z,70.30
2018-11-10T14:30:26.937Z,70.40
2018-11-10T14:33:01.476Z,70.40
2018-11-10T14:35:35.840Z,70.30
2018-11-10T14:38:09.974Z,70.40
2018-11-10T14:40:45.106Z,70.70
2018-11-10T14:43:19.238Z,70.90
2018-11-10T14:45:54.802Z,70.90
2018-11-10T14:48:30.686Z,70.80
2018-11-10T14:51:06.356Z,70.70
2018-11-10T14:53:46.345Z,70.60
2018-11-10T14:56:24.140Z,70.60
2018-11-10T14:59:00.990Z,70.70
2018-11-10T15:01:37.354Z,70.70
2018-11-10T15:04:12.426Z,71.00
2018-11-10T15:06:49.895Z,71.40
2018-11-10T15:09:25.839Z,71.70
2018-11-10T15:12:01.103Z,71.90
2018-11-10T15:14:37.517Z,71.70
2018-11-10T15:17:17.525Z,71.80
2018-11-10T15:19:53.363Z,71.40
2018-11-10T15:22:33.975Z,71.00
2018-11-10T15:25:16.176Z,71.10
2018-11-10T15:27:52.507Z,71.20
2018-11-10T15:30:29.355Z,71.30
2018-11-10T15:33:06.395Z,71.30
2018-11-10T15:35:42.377Z,71.30
2018-11-10T15:38:18.253Z,72.10
2018-11-10T15:40:54.336Z,71.40
2018-11-10T15:43:30.789Z,71.20
2018-11-10T15:46:06.076Z,71.10
2018-11-10T15:48:38.980Z,71.10
2018-11-10T15:51:13.310Z,71.30
2018-11-10T15:53:49.981Z,71.40
2018-11-10T15:56:24.840Z,71.30
2018-11-10T15:59:02.912Z,71.40
2018-11-10T16:01:38.378Z,71.60
2018-11-10T16:04:14.878Z,71.60
2018-11-10T16:06:50.718Z,71.60
2018-11-10T16:09:26.900Z,71.60
2018-11-10T16:12:01.281Z,71.40
2018-11-10T16:14:35.464Z,71.40
2018-11-10T16:17:09.621Z,71.60
2018-11-10T16:19:43.886Z,71.60
2018-11-10T16:22:19.450Z,71.50
2018-11-10T16:24:57.834Z,71.60
2018-11-10T16:27:37.287Z,72.00
2018-11-10T16:33:02.388Z,71.90
2018-11-10T16:35:45.016Z,71.90
2018-11-10T16:38:17.537Z,72.10
2018-11-10T16:40:52.047Z,72.40
2018-11-10T16:43:28.292Z,72.70
2018-11-10T16:46:00.508Z,72.70
2018-11-10T16:48:41.539Z,72.70
2018-11-10T16:51:16.524Z,72.60
2018-11-10T16:53:50.492Z,72.30
2018-11-10T16:56:26.920Z,72.30
2018-11-10T16:59:00.808Z,72.30
2018-11-10T17:01:35.201Z,72.20
2018-11-10T17:04:09.311Z,72.10
2018-11-10T17:06:43.231Z,72.10
2018-11-10T17:09:17.425Z,72.10
2018-11-10T17:11:51.390Z,72.10
2018-11-10T17:14:27.417Z,72.30
2018-11-10T17:17:02.168Z,72.50
2018-11-10T17:19:42.834Z,72.40
2018-11-10T17:22:17.638Z,72.30
2018-11-10T17:24:52.092Z,72.10
2018-11-10T17:27:27.176Z,72.00
2018-11-10T17:30:01.268Z,71.90
2018-11-10T17:32:35.458Z,71.80
2018-11-10T17:35:12.590Z,71.90
2018-11-10T17:37:47.988Z,72.00
2018-11-10T17:40:27.720Z,71.90
2018-11-10T17:43:06.221Z,71.90
2018-11-10T17:48:47.446Z,72.00
2018-11-10T17:51:22.594Z,72.00
2018-11-10T17:53:58.200Z,71.90
2018-11-10T17:56:33.237Z,71.70
2018-11-10T17:59:08.297Z,71.60
2018-11-10T18:01:43.555Z,71.80
2018-11-10T18:04:19.807Z,71.90
2018-11-10T18:06:54.804Z,71.70
2018-11-10T18:09:27.236Z,71.60
2018-11-10T18:12:02.774Z,71.50
2018-11-10T18:14:38.164Z,71.40
2018-11-10T18:17:15.537Z,71.50
2018-11-10T18:19:51.727Z,71.60
2018-11-10T18:22:35.465Z,71.70
2018-11-10T18:25:12.101Z,71.80
2018-11-10T18:27:47.302Z,71.70
2018-11-10T18:30:21.897Z,71.60
2018-11-10T18:32:55.815Z,71.70
2018-11-10T18:35:27.696Z,71.70
2018-11-10T18:38:12.085Z,71.60
2018-11-10T18:40:40.647Z,71.70
2018-11-10T18:43:09.233Z,72.20
2018-11-10T18:45:37.675Z,71.90
2018-11-10T18:48:07.678Z,71.70
2018-11-10T18:50:36.099Z,71.70
2018-11-10T18:53:04.748Z,71.60
2018-11-10T18:55:33.239Z,71.70
2018-11-10T18:58:01.739Z,71.70
2018-11-10T19:00:31.014Z,71.90
2018-11-10T19:02:59.881Z,71.90
2018-11-10T19:11:29.956Z,71.90
2018-11-10T19:14:11.486Z,72.00
2018-11-10T19:27:22.806Z,72.80
2018-11-10T19:29:57.292Z,72.70
2018-11-10T19:32:31.705Z,72.70
2018-11-10T19:35:10.429Z,72.80
2018-11-10T19:40:38.090Z,73.30
2018-11-10T19:46:34.969Z,73.00
2018-11-10T19:49:11.602Z,73.00
2018-11-10T19:51:46.914Z,73.00
2018-11-10T19:54:15.371Z,72.90
2018-11-10T19:56:43.946Z,73.00
2018-11-10T19:59:12.763Z,73.10
2018-11-10T20:01:41.363Z,73.30
2018-11-10T20:04:11.494Z,73.40
2018-11-10T20:06:40.058Z,73.40
2018-11-10T20:09:10.905Z,73.30
2018-11-10T20:11:40.313Z,73.20
2018-11-10T20:14:09.418Z,73.10
2018-11-10T20:16:38.475Z,72.90
2018-11-10T20:19:08.198Z,73.50
2018-11-10T20:21:36.724Z,72.50
2018-11-10T20:24:30.220Z,72.60
2018-11-10T20:29:45.232Z,72.10
2018-11-10T20:32:25.558Z,72.70
2018-11-10T20:41:07.198Z,71.60
2018-11-10T20:43:36.776Z,71.70
2018-11-10T20:46:06.628Z,71.80
2018-11-10T20:48:36.990Z,71.70
2018-11-10T20:51:08.354Z,71.80
2018-11-10T20:53:36.943Z,71.60
2018-11-10T20:56:06.122Z,71.50
2018-11-10T20:58:35.850Z,71.30
2018-11-10T21:01:04.364Z,71.20
2018-11-10T21:03:33.290Z,71.20
2018-11-10T21:06:02.641Z,71.30
2018-11-10T21:08:32.502Z,71.30
2018-11-10T21:11:13.548Z,71.40
2018-11-10T21:17:26.625Z,71.30
2018-11-10T21:23:09.569Z,71.90
2018-11-10T21:25:46.768Z,72.10
2018-11-10T21:31:01.968Z,72.10
2018-11-10T21:36:50.824Z,72.10
2018-11-10T21:39:34.271Z,72.10
2018-11-10T21:48:24.902Z,71.80
2018-11-10T21:50:53.543Z,71.90
2018-11-10T21:53:22.078Z,72.10
2018-11-10T21:55:51.654Z,72.20
2018-11-10T21:58:21.528Z,72.20
2018-11-10T22:01:06.694Z,72.40
2018-11-10T22:03:35.318Z,72.40
2018-11-10T22:06:03.893Z,72.60
2018-11-10T22:08:32.410Z,72.60
2018-11-10T22:11:01.048Z,73.10
2018-11-10T22:13:30.399Z,72.30
2018-11-10T22:15:58.965Z,72.30
2018-11-10T22:18:27.389Z,72.40
2018-11-10T22:20:55.872Z,72.60
2018-11-10T22:23:24.426Z,72.60
2018-11-10T22:25:52.927Z,72.60
2018-11-10T22:28:21.438Z,72.60
2018-11-10T22:30:50.787Z,72.40
2018-11-10T22:33:19.374Z,72.30
2018-11-10T22:35:47.918Z,72.30
2018-11-10T22:38:16.416Z,72.00
2018-11-10T22:40:44.872Z,72.00
2018-11-10T22:43:13.461Z,72.00
2018-11-10T22:45:41.984Z,72.00
2018-11-10T22:48:10.506Z,72.00
2018-11-10T22:50:39.021Z,72.00
2018-11-10T22:53:07.533Z,71.90
2018-11-10T22:55:35.963Z,72.00
2018-11-10T22:58:04.687Z,71.80
2018-11-10T23:00:33.130Z,71.90
2018-11-10T23:03:02.141Z,71.90
2018-11-10T23:05:52.761Z,71.90
2018-11-10T23:08:21.150Z,71.70
2018-11-10T23:10:49.651Z,71.60
2018-11-10T23:13:18.083Z,71.70
2018-11-10T23:15:46.515Z,71.60
2018-11-10T23:18:14.930Z,71.70
2018-11-10T23:20:43.350Z,71.70
2018-11-10T23:23:11.780Z,71.90
2018-11-10T23:25:40.175Z,71.90
2018-11-10T23:28:08.666Z,72.00
2018-11-10T23:30:37.088Z,72.00
2018-11-10T23:33:05.678Z,72.00
2018-11-10T23:35:45.886Z,72.00
2018-11-10T23:38:14.304Z,71.90
2018-11-10T23:40:42.774Z,71.90
2018-11-10T23:43:11.232Z,71.70
2018-11-10T23:45:39.801Z,71.80
2018-11-10T23:48:08.252Z,71.90
2018-11-10T23:50:36.727Z,71.90
2018-11-10T23:53:05.608Z,71.80
2018-11-10T23:55:34.059Z,71.90
2018-11-10T23:58:02.486Z,71.90
